Data for 06/15/2014

Time Sea-Level Adjusted Pressure Absolute Pressure Temperature Relative Humidity Dew Point   
(mb) (inHg) (mb) (inHg) (C) (F) (%) (C) (F)
00:05 1015 29.97 844 24.92 7.6 45.6 76 3.6 38.5
00:10 1015 29.97 844 24.92 7.5 45.5 76 3.6 38.6
00:15 1015 29.97 844 24.92 7.4 45.4 76 3.5 38.3
00:20 1015 29.97 844 24.92 7.3 45.2 76 3.4 38.2
00:25 1015 29.97 844 24.92 7.4 45.3 77 3.6 38.6
00:30 1015 29.97 844 24.92 7.3 45.2 77 3.6 38.6
00:35 1015 29.97 844 24.92 7.4 45.4 76 3.4 38.1
00:40 1014 29.94 844 24.92 7.7 45.8 74 3.4 38.2
00:45 1014 29.94 844 24.92 7.9 46.1 73 3.4 38.1
00:50 1014 29.94 844 24.92 8.1 46.5 72 3.3 38
00:55 1014 29.94 844 24.92 8.1 46.6 71 3.2 37.8
01:00 1014 29.94 844 24.92 8.2 46.7 71 3.3 37.9
01:05 1014 29.94 844 24.92 8.2 46.7 71 3.2 37.8
01:10 1014 29.94 844 24.92 8.1 46.6 71 3.3 37.9
01:15 1014 29.94 844 24.92 8.1 46.5 71 3.1 37.7
01:20 1014 29.94 844 24.92 8.1 46.5 70 3 37.4
01:25 1014 29.94 844 24.92 8.1 46.5 70 2.9 37.3
01:30 1014 29.94 844 24.92 8.1 46.5 70 2.9 37.2
01:35 1014 29.94 844 24.92 8.1 46.6 69 2.8 37.1
01:40 1015 29.97 844 24.92 8.2 46.7 71 3.2 37.7
01:45 1015 29.97 844 24.92 7.9 46.1 73 3.4 38.2
01:50 1015 29.97 844 24.92 7.7 45.9 73 3.3 37.9
01:55 1015 29.97 844 24.92 7.7 45.9 73 3.3 38
02:00 1015 29.97 844 24.92 7.6 45.8 73 3.2 37.7
02:05 1015 29.97 844 24.92 7.8 46.1 72 3.1 37.6
02:10 1015 29.97 844 24.92 7.9 46.2 73 3.4 38.2
02:15 1014 29.94 844 24.92 7.7 45.8 74 3.4 38.1
02:20 1015 29.97 844 24.92 7.7 45.8 74 3.3 38
02:25 1014 29.94 844 24.92 7.7 45.9 74 3.4 38.1
02:30 1014 29.94 844 24.92 7.8 46.1 73 3.4 38
02:35 1014 29.94 844 24.92 7.9 46.1 74 3.5 38.3
02:40 1014 29.94 844 24.92 7.8 46 73 3.2 37.8
02:45 1014 29.94 844 24.92 7.9 46.2 73 3.4 38
02:50 1014 29.94 844 24.92 7.9 46.3 72 3.3 38
02:55 1014 29.94 844 24.92 7.9 46.3 72 3.2 37.7
03:00 1014 29.94 844 24.92 8 46.3 72 3.2 37.8
03:05 1014 29.94 844 24.92 8 46.3 72 3.2 37.7
03:10 1014 29.94 844 24.92 8 46.4 72 3.2 37.8
03:15 1014 29.94 844 24.92 8 46.5 71 3.1 37.6
03:20 1014 29.94 844 24.92 8.1 46.5 71 3.1 37.6
03:25 1014 29.94 844 24.92 8.1 46.5 72 3.3 37.9
03:30 1014 29.94 844 24.92 8 46.5 72 3.3 37.9
03:35 1014 29.94 844 24.92 8 46.3 72 3.3 37.9
03:40 1014 29.94 844 24.92 7.9 46.2 73 3.3 37.9
03:45 1014 29.94 844 24.92 7.8 46.1 73 3.4 38.1
03:50 1014 29.94 844 24.92 7.7 45.9 73 3.3 37.9
03:55 1014 29.94 843 24.89 7.7 45.9 73 3.3 37.9
04:00 1014 29.94 843 24.89 7.7 45.9 75 3.6 38.5
04:05 1014 29.94 843 24.89 7.5 45.4 77 3.7 38.7
04:10 1014 29.94 843 24.89 7.4 45.4 75 3.3 37.9
04:15 1014 29.94 843 24.89 7.6 45.7 74 3.3 37.9
04:20 1014 29.94 843 24.89 7.7 45.9 74 3.3 38
04:25 1014 29.94 843 24.89 7.7 45.8 75 3.6 38.5
04:30 1014 29.94 843 24.89 7.6 45.7 77 3.8 38.9
04:35 1014 29.94 843 24.89 7.4 45.3 77 3.7 38.6
04:40 1014 29.94 843 24.89 7.3 45.1 78 3.7 38.6
04:45 1014 29.94 843 24.89 7.2 45 77 3.4 38.2
04:50 1014 29.94 843 24.89 7.2 45 77 3.5 38.3
04:55 1014 29.94 843 24.89 7.3 45.1 77 3.5 38.3
05:00 1014 29.94 843 24.89 7.5 45.5 76 3.5 38.3
05:05 1014 29.94 843 24.89 7.9 46.3 74 3.6 38.5
05:10 1014 29.94 843 24.89 8.2 46.7 73 3.7 38.7
05:15 1014 29.94 843 24.89 8.2 46.8 74 3.8 38.8
05:20 1014 29.94 843 24.89 8.4 47.1 72 3.7 38.7
05:25 1014 29.94 843 24.89 8.7 47.6 70 3.6 38.5
05:30 1014 29.94 843 24.89 8.9 48 70 3.7 38.6
05:35 1014 29.94 843 24.89 9.1 48.3 69 3.7 38.7
05:40 1014 29.94 843 24.89 9.1 48.3 69 3.7 38.6
05:45 1014 29.94 843 24.89 9.3 48.7 69 3.9 39
05:50 1014 29.94 843 24.89 9.5 49 68 3.8 38.8
05:55 1014 29.94 843 24.89 9.6 49.3 67 3.7 38.7
06:00 1014 29.94 843 24.89 9.6 49.3 66 3.7 38.7
06:05 1014 29.94 843 24.89 9.6 49.3 65 3.5 38.2
06:10 1014 29.94 843 24.89 9.4 49 66 3.5 38.3
06:15 1014 29.94 843 24.89 9.6 49.2 65 3.3 38
06:20 1014 29.94 843 24.89 9.7 49.4 66 3.8 38.8
06:25 1014 29.94 843 24.89 9.2 48.5 66 3.3 37.9
06:30 1014 29.94 843 24.89 9.3 48.8 66 3.3 38
06:35 1014 29.94 843 24.89 9.7 49.4 64 3.2 37.8
06:40 1014 29.94 843 24.89 9.7 49.4 65 3.4 38.1
06:45 1014 29.94 843 24.89 10 50 63 3.3 37.9
06:50 1014 29.94 843 24.89 10 50 63 3.2 37.8
06:55 1014 29.94 843 24.89 10.1 50.1 59 2.5 36.5
07:00 1014 29.94 843 24.89 10.6 51.1 58 2.7 36.9
07:05 1014 29.94 843 24.89 10.9 51.6 58 2.9 37.3
07:10 1014 29.94 843 24.89 11 51.9 58 3.1 37.5
07:15 1014 29.94 843 24.89 11.5 52.6 55 2.7 36.8
07:20 1014 29.94 843 24.89 11.7 53 55 3 37.4
07:25 1014 29.94 843 24.89 12.1 53.7 52 2.7 36.9
07:30 1014 29.94 843 24.89 12.4 54.2 52 2.8 37.1
07:35 1014 29.94 843 24.89 12.2 54 54 3.1 37.6
07:40 1014 29.94 843 24.89 11.5 52.6 56 3 37.4
07:45 1014 29.94 843 24.89 11.6 52.9 53 2.5 36.4
07:50 1014 29.94 843 24.89 11.7 53 54 2.7 36.8
07:55 1014 29.94 843 24.89 12.3 54.2 51 2.6 36.6
08:00 1014 29.94 843 24.89 12.3 54.2 52 2.8 37.1
08:05 1014 29.94 843 24.89 12.7 54.8 50 2.5 36.5
08:10 1014 29.94 843 24.89 13.3 55.9 49 2.7 36.9
08:15 1014 29.94 843 24.89 13.1 55.6 51 3.2 37.7
08:20 1014 29.94 843 24.89 12.6 54.7 54 3.6 38.4
08:25 1014 29.94 843 24.89 11.5 52.7 53 2.4 36.3
08:30 1014 29.94 843 24.89 11.9 53.5 53 2.7 36.9
08:35 1014 29.94 843 24.89 12.6 54.7 50 2.5 36.5
08:40 1013 29.91 843 24.89 12.7 54.9 51 2.9 37.2
08:45 1013 29.91 843 24.89 12.8 55.1 53 3.7 38.6
08:50 1013 29.91 843 24.89 12.4 54.3 54 3.4 38.1
08:55 1013 29.91 843 24.89 12.6 54.8 50 2.5 36.5
09:00 1013 29.91 842 24.86 13.7 56.7 46 2.5 36.5
09:05 1013 29.91 842 24.86 14.1 57.3 49 3.6 38.5
09:10 1013 29.91 842 24.86 13.2 55.7 49 2.7 36.8
09:15 1013 29.91 842 24.86 14.2 57.6 43 1.8 35.2
09:20 1013 29.91 842 24.86 14.5 58.1 43 2.3 36.1
09:25 1013 29.91 842 24.86 14.4 57.9 43 2.2 35.9
09:30 1013 29.91 842 24.86 14 57.2 41 1 33.8
09:35 1013 29.91 842 24.86 14.6 58.4 41 1.6 35
09:40 1013 29.91 842 24.86 14.6 58.2 42 1.8 35.3
09:45 1013 29.91 842 24.86 14.6 58.3 41 1.7 35.1
09:50 1013 29.91 842 24.86 14.9 58.8 36 0.1 32.2
09:55 1013 29.91 842 24.86 14.8 58.7 39 1.1 34
10:00 1013 29.91 842 24.86 15.1 59.1 38 0.8 33.4
10:05 1013 29.91 842 24.86 15.1 59.3 37 0.7 33.2
10:10 1013 29.91 842 24.86 15.2 59.3 38 1.2 34.1
10:15 1013 29.91 842 24.86 15.1 59.1 38 1.1 34
10:20 1013 29.91 842 24.86 14.6 58.2 40 1.2 34.2
10:25 1013 29.91 842 24.86 14.7 58.5 40 1.3 34.3
10:30 1013 29.91 842 24.86 15.5 60 37 1.1 34
10:35 1013 29.91 842 24.86 15.5 59.9 39 1.7 35
10:40 1013 29.91 842 24.86 14.7 58.5 42 1.9 35.4
10:45 1013 29.91 842 24.86 15 59 39 1.2 34.1
10:50 1013 29.91 842 24.86 15.7 60.3 37 1.1 33.9
10:55 1013 29.91 842 24.86 16.1 60.9 37 1.5 34.7
11:00 1013 29.91 842 24.86 15.7 60.3 39 2.1 35.8
11:05 1012 29.88 842 24.86 15.9 60.6 37 1.5 34.7
11:10 1012 29.88 842 24.86 15.8 60.5 38 1.5 34.7
11:15 1012 29.88 842 24.86 16.2 61.1 37 1.4 34.5
11:20 1012 29.88 842 24.86 16.2 61.1 37 1.4 34.6
11:25 1012 29.88 842 24.86 15.9 60.7 36 1.1 34
11:30 1012 29.88 841 24.83 15.9 60.6 38 1.7 35
11:35 1012 29.88 841 24.83 15.6 60.1 39 1.8 35.3
11:40 1012 29.88 841 24.83 16.4 61.4 37 1.7 35.1
11:45 1012 29.88 841 24.83 16.3 61.3 39 2.3 36.2
11:50 1012 29.88 841 24.83 16.1 61 37 1.4 34.6
11:55 1012 29.88 841 24.83 16.6 61.9 38 2.3 36.1
12:00 1012 29.88 841 24.83 15.9 60.5 37 1.4 34.4
12:05 1012 29.88 841 24.83 16.2 61.2 37 1.5 34.8
12:10 1012 29.88 841 24.83 17 62.6 36 2 35.6
12:15 1012 29.88 841 24.83 17.3 63.2 36 2.2 36
12:20 1012 29.88 841 24.83 17.3 63.1 36 2.2 35.9
12:25 1012 29.88 841 24.83 17.5 63.5 36 2.2 35.9
12:30 1012 29.88 841 24.83 17.6 63.7 36 2.6 36.6
12:35 1011 29.85 841 24.83 17.5 63.4 34 1.5 34.8
12:40 1011 29.85 841 24.83 17.6 63.6 35 1.9 35.5
12:45 1011 29.85 840 24.81 18.2 64.7 34 2.4 36.2
12:50 1011 29.85 840 24.81 18.3 64.9 32 1.7 35
12:55 1011 29.85 840 24.81 17.9 64.3 35 2.2 36
13:00 1011 29.85 840 24.81 18 64.4 33 1.6 34.9
13:05 1011 29.85 840 24.81 17.1 62.7 37 2.3 36.1
13:10 1011 29.85 840 24.81 17.5 63.4 36 2.3 36.1
13:15 1011 29.85 840 24.81 17.3 63.1 38 2.9 37.2
13:20 1011 29.85 840 24.81 17.8 64 34 1.9 35.5
13:25 1011 29.85 840 24.81 17.5 63.4 36 2.4 36.4
13:30 1011 29.85 840 24.81 17.4 63.3 34 1.3 34.4
13:35 1011 29.85 840 24.81 17.9 64.1 34 1.8 35.2
13:40 1011 29.85 840 24.81 17.2 63 36 2 35.6
13:45 1011 29.85 840 24.81 17.1 62.7 38 2.7 36.9
13:50 1011 29.85 840 24.81 17.3 63.2 35 1.8 35.2
13:55 1011 29.85 840 24.81 17.7 63.9 36 2.5 36.6
14:00 1011 29.85 840 24.81 17.4 63.2 36 2.4 36.3
14:05 1011 29.85 840 24.81 18 64.4 32 1.3 34.4
14:10 1011 29.85 840 24.81 18.3 64.9 34 2.1 35.9
14:15 1011 29.85 840 24.81 17 62.5 36 1.8 35.3
14:20 1011 29.85 840 24.81 17.8 64 33 1.6 34.8
14:25 1011 29.85 840 24.81 17.7 63.9 33 1.3 34.4
14:30 1011 29.85 840 24.81 18.7 65.6 32 1.6 34.9
14:35 1010 29.83 840 24.81 18.1 64.6 32 1.3 34.3
14:40 1010 29.83 840 24.81 18.6 65.5 31 1.4 34.5
14:45 1010 29.83 840 24.81 18.5 65.4 31 1.4 34.6
14:50 1010 29.83 840 24.81 18.6 65.5 32 1.8 35.2
14:55 1010 29.83 840 24.81 18.7 65.7 30 0.8 33.5
15:00 1010 29.83 840 24.81 19.6 67.3 28 1 33.8
15:05 1010 29.83 839 24.78 18.5 65.3 32 1.5 34.8
15:10 1010 29.83 839 24.78 19.1 66.3 30 1.4 34.6
15:15 1010 29.83 839 24.78 18 64.4 31 0.7 33.3
15:20 1010 29.83 839 24.78 18.1 64.6 31 0.9 33.5
15:25 1010 29.83 839 24.78 18.8 65.9 29 0.5 33
15:30 1010 29.83 839 24.78 18.9 66 31 1.5 34.6
15:35 1010 29.83 839 24.78 19.1 66.4 31 1.8 35.2
15:40 1010 29.83 839 24.78 18.4 65.1 32 1.6 34.8
15:45 1010 29.83 839 24.78 18 64.4 32 1.4 34.5
15:50 1010 29.83 839 24.78 17.8 64 35 2.2 35.9
15:55 1010 29.83 839 24.78 17.4 63.3 37 2.6 36.7
16:00 1010 29.83 840 24.81 16.9 62.4 45 5.1 41.2
16:05 1011 29.85 840 24.81 15.9 60.6 42 3 37.4
16:10 1011 29.85 840 24.81 15.3 59.5 47 4.1 39.3
16:15 1011 29.85 840 24.81 15 59 49 4.3 39.8
16:20 1011 29.85 840 24.81 15.2 59.3 49 4.5 40.1
16:25 1011 29.85 840 24.81 14.3 57.7 55 5.6 42
16:30 1011 29.85 840 24.81 14.2 57.6 52 4.7 40.5
16:35 1011 29.85 840 24.81 15 59 46 3.6 38.5
16:40 1011 29.85 840 24.81 14.8 58.6 47 3.7 38.7
16:45 1011 29.85 840 24.81 14.9 58.8 47 3.8 38.9
16:50 1011 29.85 840 24.81 15.1 59.1 49 4.5 40.1
16:55 1011 29.85 840 24.81 15.4 59.6 51 5.4 41.8
17:00 1010 29.83 840 24.81 15.2 59.4 53 5.9 42.6
17:05 1010 29.83 840 24.81 15.2 59.3 51 5.2 41.3
17:10 1010 29.83 840 24.81 14.9 58.7 55 6 42.8
17:15 1010 29.83 840 24.81 14.2 57.6 56 5.6 42
17:20 1010 29.83 840 24.81 13.9 57.1 55 5.1 41.2
17:25 1010 29.83 839 24.78 14 57.2 56 5.4 41.7
17:30 1010 29.83 839 24.78 14.5 58.1 52 4.7 40.5
17:35 1010 29.83 839 24.78 15.1 59.2 47 4.1 39.4
17:40 1010 29.83 839 24.78 15.3 59.5 48 4.3 39.8
17:45 1010 29.83 839 24.78 15.4 59.6 47 4.3 39.7
17:50 1010 29.83 839 24.78 15.4 59.7 48 4.4 39.9
17:55 1010 29.83 839 24.78 15.3 59.5 50 4.9 40.8
18:00 1010 29.83 839 24.78 15.7 60.3 49 5.1 41.1
18:05 1010 29.83 839 24.78 15.4 59.7 46 4 39.3
18:10 1010 29.83 839 24.78 15.2 59.4 49 4.8 40.6
18:15 1010 29.83 839 24.78 15.2 59.3 49 4.6 40.2
18:20 1010 29.83 839 24.78 15.1 59.1 48 4.4 39.9
18:25 1010 29.83 839 24.78 15.1 59.1 49 4.5 40.1
18:30 1010 29.83 839 24.78 15.1 59.1 48 4.1 39.4
18:35 1010 29.83 839 24.78 15.2 59.3 47 4 39.2
18:40 1010 29.83 839 24.78 15.2 59.4 47 4.1 39.4
18:45 1010 29.83 839 24.78 15.2 59.4 48 4.3 39.7
18:50 1010 29.83 839 24.78 15.2 59.3 47 4.2 39.5
18:55 1010 29.83 839 24.78 15.1 59.2 50 5 40.9
19:00 1010 29.83 839 24.78 15 59 52 5.2 41.4
19:05 1009 29.8 839 24.78 15 59 52 5.3 41.5
19:10 1009 29.8 839 24.78 14.9 58.9 50 4.8 40.7
19:15 1009 29.8 839 24.78 14.9 58.8 51 5 41
19:20 1009 29.8 839 24.78 14.9 58.7 53 5.4 41.8
19:25 1009 29.8 839 24.78 14.8 58.6 54 5.6 42
19:30 1009 29.8 839 24.78 14.7 58.4 54 5.5 42
19:35 1009 29.8 839 24.78 14.6 58.3 56 5.9 42.6
19:40 1009 29.8 839 24.78 14.5 58.1 55 5.6 42
19:45 1009 29.8 839 24.78 14.4 58 55 5.5 41.9
19:50 1009 29.8 839 24.78 14.4 57.8 54 5.3 41.5
19:55 1009 29.8 839 24.78 14.3 57.7 54 5.2 41.3
20:00 1009 29.8 839 24.78 14.2 57.5 55 5.3 41.6
20:05 1009 29.8 839 24.78 14 57.3 56 5.3 41.6
20:10 1010 29.83 839 24.78 13.9 57 56 5.4 41.8
20:15 1010 29.83 839 24.78 13.9 57 56 5.4 41.8
20:20 1010 29.83 839 24.78 13.9 57 48 3.3 37.9
20:25 1010 29.83 839 24.78 13.7 56.7 49 3.3 38
20:30 1010 29.83 840 24.81 13.5 56.3 51 3.6 38.4
20:35 1010 29.83 840 24.81 13.2 55.7 52 3.6 38.4
20:40 1010 29.83 840 24.81 13 55.4 53 3.6 38.5
20:45 1010 29.83 840 24.81 12.9 55.3 54 3.8 38.9
20:50 1010 29.83 840 24.81 12.8 55.1 54 3.8 38.9
20:55 1010 29.83 840 24.81 12.7 54.8 55 3.8 38.8
21:00 1010 29.83 840 24.81 12.4 54.4 56 3.9 39.1
21:05 1011 29.85 840 24.81 12.2 54 57 4 39.2
21:10 1011 29.85 840 24.81 12.1 53.8 58 4.1 39.4
21:15 1011 29.85 840 24.81 12 53.5 58 4 39.2
21:20 1011 29.85 840 24.81 12 53.6 58 4 39.3
21:25 1011 29.85 840 24.81 11.9 53.3 59 4.1 39.4
21:30 1011 29.85 840 24.81 11.8 53.3 60 4.2 39.6
21:35 1011 29.85 840 24.81 11.7 53.1 61 4.6 40.3
21:40 1011 29.85 840 24.81 11.4 52.6 63 4.6 40.4
21:45 1011 29.85 840 24.81 11.3 52.3 63 4.6 40.3
21:50 1011 29.85 840 24.81 11.2 52.2 63 4.6 40.2
21:55 1011 29.85 840 24.81 11.2 52.1 63 4.5 40.1
22:00 1011 29.85 840 24.81 11.1 52 63 4.5 40
22:05 1011 29.85 840 24.81 11.1 52 63 4.3 39.8
22:10 1011 29.85 840 24.81 11.4 52.6 62 4.4 39.9
22:15 1011 29.85 840 24.81 11.5 52.7 63 4.7 40.4
22:20 1011 29.85 840 24.81 11.4 52.5 63 4.7 40.4
22:25 1011 29.85 840 24.81 11.4 52.6 64 5 41
22:30 1011 29.85 840 24.81 11.5 52.7 66 5.3 41.6
22:35 1011 29.85 840 24.81 11.4 52.6 67 5.5 41.9
22:40 1011 29.85 840 24.81 11.2 52.2 69 5.9 42.6
22:45 1011 29.85 840 24.81 11 51.8 73 6.3 43.4
22:50 1011 29.85 840 24.81 10.8 51.4 72 6.1 42.9
22:55 1011 29.85 840 24.81 10.8 51.4 75 6.4 43.6
23:00 1011 29.85 840 24.81 10.7 51.2 73 6 42.8
23:05 1011 29.85 840 24.81 10.6 51.1 72 5.9 42.6
23:10 1011 29.85 840 24.81 10.6 51 74 6.1 43
23:15 1011 29.85 840 24.81 10.5 50.8 72 5.7 42.2
23:20 1011 29.85 840 24.81 10.4 50.8 75 6.2 43.1
23:25 1011 29.85 840 24.81 10.4 50.7 76 6.4 43.6
23:30 1011 29.85 840 24.81 10.4 50.7 76 6.4 43.5
23:35 1011 29.85 840 24.81 10.3 50.5 77 6.5 43.7
23:40 1011 29.85 840 24.81 10.1 50.2 79 6.6 43.8
23:45 1011 29.85 840 24.81 10 50 79 6.6 43.9
23:50 1011 29.85 840 24.81 9.9 49.9 80 6.6 43.9
23:55 1011 29.85 840 24.81 9.8 49.6 80 6.6 43.9
24:00 1011 29.85 840 24.81 9.7 49.4 82 6.8 44.2